Flight Track Log - Related Links

Times and Time Zones

All times are in EDT time to prevent confusion due to time zone crossing. See the AWE915 flight status page for this flight to view local times or setup timezone preferences in your user account.

Time Position Orientation Groundspeed Altitude Reporting Facility
EDT Latitude Longitude Course Direction KTS MPH feet Rate Location/Type
Mon 06:44:22 AM 33.4333 -111.9833 20° North 166 191 2,100  Level Phoenix TRACON
Mon 06:44:52 AM 33.4333 -111.9500 90° East 173 199 2,700 1,067 Climbing Phoenix TRACON
Mon 06:45:52 AM 33.4333 -111.8833 90° East 240 276 3,700 1,400 Climbing Phoenix TRACON
Mon 06:46:52 AM 33.4667 -111.8000 64° Northeast 278 320 5,500 1,900 Climbing Phoenix TRACON
Mon 06:47:00 AM 33.9029 -111.7978 20° North  Level FlightAware Approximate
Mon 06:47:52 AM 33.5333 -111.7500 32° Northeast 289 333 7,500  Level Phoenix TRACON
Mon 06:48:00 AM 34.0204 -111.7463 20° North  Level FlightAware Approximate
Mon 06:48:52 AM 33.6000 -111.6667 46° Northeast 300 345 9,700  Level Phoenix TRACON
Mon 06:49:00 AM 34.1381 -111.6952 20° North  Level FlightAware Approximate
Mon 06:49:52 AM 33.6667 -111.6000 40° Northeast 342 394 10,900  Level Phoenix TRACON
Mon 06:51:12 AM 33.7647 -111.4942 42° Northeast 380 437 12,800 1,586 Climbing Albuquerque Center
Mon 06:52:12 AM 33.8456 -111.4064 42° Northeast 394 453 14,600 1,700 Climbing Albuquerque Center
Mon 06:53:12 AM 33.9292 -111.3158 42° Northeast 406 467 16,200 1,650 Climbing Albuquerque Center
Mon 06:54:12 AM 34.0133 -111.2242 42° Northeast 411 473 17,900 1,537 Climbing Albuquerque Center
Mon 06:55:13 AM 34.0733 -111.1044 59° Northeast 425 489 19,300 1,339 Climbing Albuquerque Center
Mon 06:56:13 AM 34.1192 -110.9722 67° East 428 493 20,600 1,300 Climbing Albuquerque Center
Mon 06:57:13 AM 34.1678 -110.8375 66° East 436 502 21,900 1,150 Climbing Albuquerque Center
Mon 06:58:13 AM 34.2183 -110.6953 67° East 447 514 22,900 1,000 Climbing Albuquerque Center
Mon 06:59:13 AM 34.2675 -110.5572 67° East 454 522 23,900 950 Climbing Albuquerque Center
Mon 07:00:13 AM 34.3206 -110.4142 66° East 462 532 24,800 900 Climbing Albuquerque Center
Mon 07:01:13 AM 34.3733 -110.2569 68° East 469 540 25,700 850 Climbing Albuquerque Center
Mon 07:02:13 AM 34.4239 -110.1153 67° East 475 547 26,500 850 Climbing Albuquerque Center
Mon 07:03:13 AM 34.4731 -109.9700 68° East 482 555 27,400 750 Climbing Albuquerque Center
Mon 07:04:13 AM 34.5233 -109.8258 67° East 485 558 28,000 650 Climbing Albuquerque Center
Mon 07:05:13 AM 34.5817 -109.6556 67° East 488 562 28,700 595 Climbing Albuquerque Center
Mon 07:06:14 AM 34.6328 -109.5083 67° East 493 567 29,200 446 Climbing Albuquerque Center
Mon 07:07:14 AM 34.6844 -109.3558 68° East 503 579 29,600 500 Climbing Albuquerque Center
Mon 07:08:14 AM 34.7453 -109.1778 67° East 509 586 30,200 650 Climbing Albuquerque Center
Mon 07:09:14 AM 34.7969 -109.0247 68° East 510 587 30,900 650 Climbing Albuquerque Center
Mon 07:10:14 AM 34.8489 -108.8708 68° East 513 590 31,500 600 Climbing Albuquerque Center
Mon 07:11:14 AM 34.8997 -108.7147 68° East 516 594 32,100 750 Climbing Albuquerque Center
Mon 07:12:14 AM 34.9600 -108.5356 68° East 515 593 33,000 750 Climbing Albuquerque Center
Mon 07:13:14 AM 35.0108 -108.3825 68° East 512 589 33,600 600 Climbing Albuquerque Center
Mon 07:14:14 AM 35.0614 -108.2286 68° East 512 589 34,200 600 Climbing Albuquerque Center
Mon 07:15:14 AM 35.1208 -108.0492 68° East 511 588 34,800 400 Climbing Albuquerque Center
Mon 07:16:14 AM 35.1700 -107.8956 69° East 510 587 35,000 100 Climbing Albuquerque Center
Mon 07:17:14 AM 35.2200 -107.7425 68° East 508 585 35,000  Level Albuquerque Center
Mon 07:18:14 AM 35.2697 -107.5867 69° East 512 589 35,000  Level Albuquerque Center
Mon 07:19:15 AM 35.3294 -107.4031 68° East 519 597 35,000  Level Albuquerque Center
Mon 07:20:15 AM 35.3786 -107.2453 69° East 519 597 35,000  Level Albuquerque Center
Mon 07:21:15 AM 35.4333 -107.0711 69° East 523 602 35,000  Level Albuquerque Center
Mon 07:22:15 AM 35.4844 -106.9100 69° East 511 588 35,000  Level Albuquerque Center
Mon 07:23:15 AM 35.5339 -106.7500 69° East 503 579 35,000  Level Albuquerque Center
Mon 07:24:15 AM 35.5836 -106.5897 69° East 503 579 35,000  Level Albuquerque Center
Mon 07:25:15 AM 35.6339 -106.4297 69° East 501 577 35,000  Level Albuquerque Center
Mon 07:26:15 AM 35.6825 -106.2644 70° East 512 589 35,000  Level Albuquerque Center
Mon 07:27:15 AM 35.7333 -106.1186 67° East 511 588 35,000  Level Albuquerque Center
Mon 07:28:16 AM 35.7814 -105.9564 70° East 507 583 35,000  Level Albuquerque Center
Mon 07:29:16 AM 35.8306 -105.7917 70° East 510 587 35,000  Level Albuquerque Center
Mon 07:30:16 AM 35.8794 -105.6278 70° East 511 588 35,000  Level Albuquerque Center
Mon 07:31:16 AM 35.9264 -105.4661 70° East 510 587 35,000  Level Albuquerque Center
Mon 07:32:16 AM 35.9747 -105.3011 70° East 507 583 35,000 50 Level Albuquerque Center
Mon 07:33:16 AM 36.0256 -105.1331 69° East 512 589 35,100  Climbing Albuquerque Center
Mon 07:34:16 AM 36.0742 -104.9669 70° East 511 588 35,000 -50 Descending Albuquerque Center
Mon 07:35:16 AM 36.1214 -104.8033 70° East 503 579 35,000  Level Albuquerque Center
Mon 07:36:16 AM 36.1694 -104.6397 70° East 501 577 35,000  Level Albuquerque Center
Mon 07:37:17 AM 36.2164 -104.4750 71° East 501 577 35,000  Level Albuquerque Center
Mon 07:38:17 AM 36.2642 -104.3092 70° East 504 580 35,000  Level Albuquerque Center
Mon 07:39:17 AM 36.3117 -104.1431 70° East 505 581 35,000  Level Albuquerque Center
Mon 07:40:17 AM 36.3597 -103.9789 70° East 503 579 35,000  Level Albuquerque Center
Mon 07:41:17 AM 36.3986 -103.8403 71° East 503 579 35,000  Level Albuquerque Center
Mon 07:42:17 AM 36.4461 -103.6733 70° East 506 582 35,000  Level Albuquerque Center
Mon 07:43:18 AM 36.4922 -103.5047 71° East 509 586 35,000  Level Albuquerque Center
Mon 07:44:18 AM 36.5383 -103.3369 71° East 509 586 35,000  Level Albuquerque Center
Mon 07:45:18 AM 36.5844 -103.1706 71° East 507 583 35,000  Level Albuquerque Center
Mon 07:46:18 AM 36.6300 -103.0028 71° East 507 583 35,000  Level Albuquerque Center
Mon 07:47:18 AM 36.6767 -102.8294 71° East 503 579 35,000  Level Albuquerque Center
Mon 07:48:19 AM 36.7192 -102.6722 71° East 502 578 35,000  Level Albuquerque Center
Mon 07:49:19 AM 36.7619 -102.5142 71° East 505 581 35,000  Level Albuquerque Center
Mon 07:50:19 AM 36.8064 -102.3456 72° East 509 586 35,000  Level Albuquerque Center
Mon 07:51:19 AM 36.8558 -102.1581 72° East 505 581 35,000  Level Albuquerque Center
Mon 07:52:15 AM 36.8978 -101.9992 72° East 504 580 35,000 205 Level Kansas City Center
Mon 07:53:16 AM 36.9392 -101.8394 72° East 504 580 35,400 492 Climbing Kansas City Center
Mon 07:54:17 AM 36.9797 -101.6811 72° East 503 579 36,000 590 Climbing Kansas City Center
Mon 07:55:18 AM 37.0278 -101.4956 72° East 503 579 36,600 492 Climbing Kansas City Center
Mon 07:56:19 AM 37.0683 -101.3381 72° East 501 577 37,000 197 Climbing Kansas City Center
Mon 07:57:20 AM 37.1086 -101.1794 72° East 501 577 37,000  Level Kansas City Center
Mon 07:58:21 AM 37.1556 -100.9958 72° East 500 575 37,000  Level Kansas City Center
Mon 07:59:22 AM 37.1950 -100.8372 73° East 501 577 37,000  Level Kansas City Center
Mon 08:00:23 AM 37.2417 -100.6536 72° East 500 575 37,000  Level Kansas City Center
Mon 08:01:24 AM 37.2806 -100.4969 73° East 497 572 37,000  Level Kansas City Center
Mon 08:02:25 AM 37.3189 -100.3400 73° East 495 570 37,000  Level Kansas City Center
Mon 08:03:26 AM 37.3644 -100.1569 73° East 495 570 37,000  Level Kansas City Center
Mon 08:04:27 AM 37.4028 -99.9978 73° East 496 571 37,000  Level Kansas City Center
Mon 08:05:28 AM 37.4478 -99.8136 73° East 496 571 37,000  Level Kansas City Center
Mon 08:06:29 AM 37.4847 -99.6553 74° East 495 570 37,000  Level Kansas City Center
Mon 08:07:30 AM 37.5231 -99.4953 73° East 498 573 37,000  Level Kansas City Center
Mon 08:08:31 AM 37.5678 -99.3106 73° East 504 580 37,000  Level Kansas City Center
Mon 08:09:33 AM 37.6061 -99.1431 74° East 501 577 37,000  Level Kansas City Center
Mon 08:10:34 AM 37.6464 -98.9744 73° East 501 577 37,000  Level Kansas City Center
Mon 08:11:35 AM 37.6844 -98.8067 74° East 500 575 37,000  Level Kansas City Center
Mon 08:12:36 AM 37.7225 -98.6375 74° East 501 577 37,000  Level Kansas City Center
Mon 08:13:37 AM 37.7608 -98.4692 74° East 500 575 37,000  Level Kansas City Center
Mon 08:14:38 AM 37.8003 -98.3025 73° East 496 571 37,000  Level Kansas City Center
Mon 08:15:39 AM 37.8422 -98.1136 74° East 497 572 37,000  Level Kansas City Center
Mon 08:16:40 AM 37.8800 -97.9475 74° East 491 565 37,000  Level Kansas City Center
Mon 08:17:42 AM 37.9144 -97.7858 75° East 495 570 37,000  Level Kansas City Center
Mon 08:18:43 AM 37.9525 -97.6169 74° East 499 574 37,000  Level Kansas City Center
Mon 08:19:44 AM 37.9894 -97.4442 75° East 495 570 37,000  Level Kansas City Center
Mon 08:20:45 AM 38.0261 -97.2747 75° East 496 571 37,000  Level Kansas City Center
Mon 08:21:47 AM 38.0625 -97.1069 75° East 494 568 37,000  Level Kansas City Center
Mon 08:22:48 AM 38.0989 -96.9367 75° East 499 574 37,000  Level Kansas City Center
Mon 08:23:49 AM 38.1411 -96.7342 75° East 497 572 37,000  Level Kansas City Center
Mon 08:24:51 AM 38.1764 -96.5664 75° East 493 567 37,000  Level Kansas City Center
Mon 08:25:52 AM 38.2078 -96.4114 76° East 487 560 37,000  Level Kansas City Center
Mon 08:26:53 AM 38.2458 -96.2253 75° East 488 562 37,000  Level Kansas City Center
Mon 08:27:55 AM 38.2797 -96.0642 75° East 493 567 37,000  Level Kansas City Center
Mon 08:28:56 AM 38.3175 -95.8758 76° East 493 567 37,000  Level Kansas City Center
Mon 08:29:58 AM 38.3497 -95.7150 76° East 491 565 37,000  Level Kansas City Center
Mon 08:30:59 AM 38.3819 -95.5536 76° East 492 566 37,000  Level Kansas City Center
Mon 08:32:00 AM 38.4186 -95.3647 76° East 493 567 37,000  Level Kansas City Center
Mon 08:33:02 AM 38.4514 -95.1994 76° East 495 570 37,000  Level Kansas City Center
Mon 08:34:03 AM 38.4878 -95.0158 76° East 489 563 37,000  Level Kansas City Center
Mon 08:35:05 AM 38.5186 -94.8528 76° East 495 570 37,000  Level Kansas City Center
Mon 08:36:06 AM 38.5500 -94.6906 76° East 494 568 37,000  Level Kansas City Center
Mon 08:37:07 AM 38.5869 -94.5014 76° East 494 568 37,000  Level Kansas City Center
Mon 08:38:09 AM 38.6169 -94.3397 77° East 491 565 37,000  Level Kansas City Center
Mon 08:39:10 AM 38.6522 -94.1522 76° East 489 563 37,000  Level Kansas City Center
Mon 08:40:12 AM 38.6814 -93.9917 77° East 486 559 37,000  Level Kansas City Center
Mon 08:41:13 AM 38.7164 -93.8022 77° East 490 564 37,000  Level Kansas City Center
Mon 08:42:15 AM 38.7433 -93.6550 77° East 487 560 37,000 49 Level Kansas City Center
Mon 08:43:16 AM 38.7733 -93.4864 77° East 485 558 37,100  Climbing Kansas City Center
Mon 08:44:18 AM 38.8122 -93.2783 76° East 490 564 37,000 -49 Descending Kansas City Center
Mon 08:45:19 AM 38.8411 -93.1103 78° East 487 560 37,000  Level Kansas City Center
Mon 08:46:21 AM 38.8697 -92.9403 78° East 485 558 37,000  Level Kansas City Center
Mon 08:47:22 AM 38.9019 -92.7639 77° East 494 568 37,000 49 Level Kansas City Center
Mon 08:48:24 AM 38.9311 -92.5903 78° East 495 570 37,100  Climbing Kansas City Center
Mon 08:49:25 AM 38.9600 -92.4203 78° East 490 564 37,000 -49 Descending Kansas City Center
Mon 08:50:27 AM 38.9889 -92.2489 78° East 488 562 37,000  Level Kansas City Center
Mon 08:51:28 AM 39.0167 -92.0794 78° East 485 558 37,000  Level Kansas City Center
Mon 08:52:30 AM 39.0442 -91.9056 78° East 489 563 37,000  Level Kansas City Center
Mon 08:53:31 AM 39.0733 -91.7333 78° East 490 564 37,000  Level Kansas City Center
Mon 08:54:33 AM 39.1050 -91.5358 78° East 493 567 37,000  Level Kansas City Center
Mon 08:55:34 AM 39.1328 -91.3631 78° East 493 567 37,000  Level Kansas City Center
Mon 08:56:36 AM 39.1603 -91.1900 78° East 493 567 37,000  Level Kansas City Center
Mon 08:57:38 AM 39.1875 -91.0158 79° East 494 568 37,000  Level Kansas City Center
Mon 08:58:39 AM 39.2153 -90.8406 78° East 497 572 37,000  Level Kansas City Center
Mon 08:59:41 AM 39.2428 -90.6647 79° East 498 573 37,000  Level Kansas City Center
Mon 09:00:42 AM 39.2692 -90.4892 79° East 497 572 37,000  Level Kansas City Center
Mon 09:01:44 AM 39.2967 -90.3114 79° East 500 575 37,000  Level Kansas City Center
Mon 09:02:46 AM 39.3225 -90.1297 80° East 507 583 37,000  Level Kansas City Center
Mon 09:03:47 AM 39.3533 -89.9139 79° East 508 585 37,000  Level Kansas City Center
Mon 09:04:49 AM 39.3797 -89.7364 79° East 506 582 37,000  Level Kansas City Center
Mon 09:05:51 AM 39.4047 -89.5589 80° East 502 578 37,000  Level Kansas City Center
Mon 09:06:52 AM 39.4303 -89.3814 79° East 503 579 37,000  Level Kansas City Center
Mon 09:07:54 AM 39.4547 -89.2006 80° East 503 579 37,000  Level Kansas City Center
Mon 09:08:55 AM 39.4797 -89.0228 80° East 504 580 37,000  Level Kansas City Center
Mon 09:09:57 AM 39.5036 -88.8453 80° East 504 580 37,000  Level Kansas City Center
Mon 09:10:59 AM 39.5278 -88.6661 80° East 504 580 37,000  Level Kansas City Center
Mon 09:12:00 AM 39.5561 -88.4700 79° East 501 577 37,000  Level Kansas City Center
Mon 09:13:02 AM 39.5803 -88.2878 80° East 505 581 37,000  Level Kansas City Center
Mon 09:14:04 AM 39.6056 -88.1044 80° East 511 588 37,000  Level Kansas City Center
Mon 09:15:05 AM 39.6283 -87.9228 81° East 509 586 37,000  Level Kansas City Center
Mon 09:16:07 AM 39.6506 -87.7431 81° East 505 581 37,000  Level Kansas City Center
Mon 09:17:17 AM 39.6772 -87.5011 82° East 512 589 37,000  Level Indianapolis Center
Mon 09:18:19 AM 39.6894 -87.3183 85° East 512 589 37,000  Level Indianapolis Center
Mon 09:19:21 AM 39.7042 -87.1347 84° East 513 590 37,000  Level Indianapolis Center
Mon 09:20:23 AM 39.7181 -86.9522 84° East 511 588 37,000  Level Indianapolis Center
Mon 09:21:25 AM 39.7322 -86.7706 84° East 510 587 37,000  Level Indianapolis Center
Mon 09:22:27 AM 39.7450 -86.5878 85° East 511 588 37,000  Level Indianapolis Center
Mon 09:23:30 AM 39.7597 -86.3825 85° East 510 587 37,000  Level Indianapolis Center
Mon 09:24:32 AM 39.7719 -86.1964 85° East 513 590 37,000  Level Indianapolis Center
Mon 09:25:34 AM 39.7853 -86.0197 84° East 513 590 37,000  Level Indianapolis Center
Mon 09:26:36 AM 39.7992 -85.8011 85° East 507 583 37,000  Level Indianapolis Center
Mon 09:27:38 AM 39.8108 -85.6183 85° East 510 587 37,000 48 Level Indianapolis Center
Mon 09:28:40 AM 39.8158 -85.4350 88° East 511 588 37,100  Climbing Indianapolis Center
Mon 09:29:42 AM 39.8033 -85.2508 95° East 513 590 37,000 -48 Descending Indianapolis Center
Mon 09:30:44 AM 39.7944 -85.0683 94° East 509 586 37,000  Level Indianapolis Center
Mon 09:31:46 AM 39.7869 -84.8681 93° East 506 582 37,000  Level Indianapolis Center
Mon 09:32:48 AM 39.7986 -84.6853 85° East 504 580 37,000  Level Indianapolis Center
Mon 09:33:50 AM 39.8119 -84.5011 85° East 507 583 37,000  Level Indianapolis Center
Mon 09:34:52 AM 39.8281 -84.2861 84° East 508 585 37,000  Level Indianapolis Center
Mon 09:35:54 AM 39.8403 -84.0994 85° East 512 589 37,000  Level Indianapolis Center
Mon 09:36:56 AM 39.8533 -83.9131 85° East 514 592 37,000  Level Indianapolis Center
Mon 09:37:58 AM 39.8650 -83.7283 85° East 509 586 37,000  Level Indianapolis Center
Mon 09:39:00 AM 39.8764 -83.5417 85° East 510 587 37,000  Level Indianapolis Center
Mon 09:40:02 AM 39.8853 -83.3581 86° East 507 583 37,000  Level Indianapolis Center
Mon 09:41:04 AM 39.8853 -83.1583 90° East 509 586 37,000  Level Indianapolis Center
Mon 09:42:06 AM 39.8856 -82.9736 90° East 505 581 37,000  Level Indianapolis Center
Mon 09:43:08 AM 39.8867 -82.7881 89° East 507 583 37,000  Level Indianapolis Center
Mon 09:44:10 AM 39.8858 -82.6036 90° East 507 583 37,000  Level Indianapolis Center
Mon 09:45:12 AM 39.8864 -82.4192 90° East 506 582 37,000  Level Indianapolis Center
Mon 09:46:14 AM 39.8864 -82.2031 90° East 508 585 37,000  Level Indianapolis Center
Mon 09:47:16 AM 39.8853 -82.0206 90° East 503 579 37,000  Level Indianapolis Center
Mon 09:48:18 AM 39.8844 -81.8364 90° East 503 579 37,000  Level Indianapolis Center
Mon 09:49:20 AM 39.8836 -81.6525 90° East 504 580 37,000  Level Indianapolis Center
Mon 09:50:22 AM 39.8811 -81.4683 91° East 505 581 37,000  Level Indianapolis Center
Mon 09:51:24 AM 39.8697 -81.2667 94° East 505 581 37,000  Level Indianapolis Center
Mon 09:52:26 AM 39.8539 -81.0850 96° East 503 579 37,000  Level Indianapolis Center
Mon 09:53:28 AM 39.8375 -80.9039 97° East 501 577 37,000  Level Indianapolis Center
Mon 09:54:30 AM 39.8203 -80.7244 97° East 500 575 37,000  Level Indianapolis Center
Mon 09:55:32 AM 39.8039 -80.5436 97° East 502 578 37,000  Level Indianapolis Center
Mon 09:56:34 AM 39.7875 -80.3614 97° East 505 581 37,000  Level Indianapolis Center
Mon 09:57:37 AM 39.7706 -80.1794 97° East 504 580 37,000 -48 Level Indianapolis Center
Mon 09:58:39 AM 39.7497 -79.9622 97° East 503 579 36,900 -984 Descending Indianapolis Center
Mon 09:59:45 AM 39.7350 -79.7842 96° East 503 579 34,900 -2,365 Descending Cleveland Center
Mon 10:02:02 AM 39.6936 -79.3886 98° East 500 575 28,900 -2,523 Descending Washington Center
Mon 10:03:00 AM 39.6778 -79.2206 97° East 480 552 26,700 -1,983 Descending Washington Center
Mon 10:04:00 AM 39.6556 -79.0606 100° East 463 533 25,000 -1,033 Descending Washington Center
Mon 10:05:02 AM 39.6147 -78.8833 107° East 458 527 24,600 -1,400 Descending Washington Center
Mon 10:06:00 AM 39.5792 -78.7256 106° East 458 527 22,200 -2,186 Descending Washington Center
Mon 10:07:00 AM 39.5478 -78.5733 105° East 450 518 20,300 -1,835 Descending Washington Center
Mon 10:08:01 AM 39.5136 -78.4267 107° East 437 503 18,500 -1,672 Descending Washington Center
Mon 10:09:02 AM 39.4836 -78.2858 105° East 418 481 16,900 -1,664 Descending Washington Center
Mon 10:10:00 AM 39.4511 -78.1475 107° East 407 468 15,200 -1,361 Descending Washington Center
Mon 10:11:01 AM 39.4458 -78.0050 93° East 397 457 14,200 -984 Descending Washington Center
Mon 10:12:02 AM 39.4467 -77.8544 90° East 402 463 13,200 -908 Descending Washington Center
Mon 10:13:00 AM 39.4450 -77.7067 91° East 407 468 12,400 -661 Descending Washington Center
Mon 10:14:00 AM 39.4456 -77.5614 90° East 407 468 11,900 -545 Descending Washington Center
Mon 10:15:01 AM 39.4436 -77.4164 91° East 402 463 11,300 -466 Descending Washington Center
Mon 10:15:43 AM 39.4500 -77.3167 85° East 383 441 11,100 -118 Descending Potomac TRACON
Mon 10:16:43 AM 39.4667 -77.1833 81° East 369 425 11,100 -104 Level Potomac TRACON
Mon 10:17:38 AM 39.4667 -77.0667 90° East 354 407 10,900 -783 Descending Potomac TRACON
Mon 10:18:38 AM 39.4833 -76.9500 79° East 331 381 9,600 -1,381 Descending Potomac TRACON
Mon 10:19:44 AM 39.4833 -76.8167 90° East 319 367 8,000 -1,476 Descending Potomac TRACON
Mon 10:20:44 AM 39.4833 -76.7167 90° East 307 353 6,500 -1,053 Descending Potomac TRACON
Mon 10:21:38 AM 39.4667 -76.6167 102° East 301 346 6,000 -843 Descending Potomac TRACON
Mon 10:22:45 AM 39.4000 -76.5500 142° Southeast 288 331 4,800 -1,039 Descending Potomac TRACON
Mon 10:23:45 AM 39.3167 -76.5333 171° South 280 322 3,800 -1,000 Descending Potomac TRACON
Mon 10:24:45 AM 39.2500 -76.5000 159° South 267 307 2,800 -843 Descending Potomac TRACON
Mon 10:25:46 AM 39.1833 -76.5333 201° Southwest 237 273 2,100 -397 Descending Potomac TRACON
Mon 10:26:46 AM 39.1333 -76.5667 207° Southwest 205 236 2,000 -450 Descending Potomac TRACON
Mon 10:27:46 AM 39.1333 -76.6333 270° West 168 193 1,200 -800 Descending Potomac TRACON
Mon 10:28:46 AM 39.1667 -76.6667 322° Northwest 132 152 400 -800 Descending Potomac TRACON
Mon 10:30:00 AM 39.1754 -76.6683 293° West  Level Estimated
Mon 10:37:00 AM 39.1754 -76.6683 293° West  Level Estimated
Mon 10:38:00 AM 39.1754 -76.6683 293° West  Level Estimated

Login

Don't have an account? Register now (free) for customized features, flight alerts, and more!